sensor_id;sensor_type;location;lat;lon;timestamp;pressure;altitude;pressure_sealevel;temperature;humidity
77147;BME280;66121;52.584;9.694;2024-02-21T00:01:36;101582.16;;;7.67;100.00
77147;BME280;66121;52.584;9.694;2024-02-21T00:04:02;101580.91;;;7.65;100.00
77147;BME280;66121;52.584;9.694;2024-02-21T00:06:27;101581.81;;;7.69;100.00
77147;BME280;66121;52.584;9.694;2024-02-21T00:08:53;101587.44;;;7.72;100.00
77147;BME280;66121;52.584;9.694;2024-02-21T00:11:18;101585.00;;;7.71;100.00
77147;BME280;66121;52.584;9.694;2024-02-21T00:13:43;101574.69;;;7.68;100.00
77147;BME280;66121;52.584;9.694;2024-02-21T00:16:08;101572.97;;;7.75;100.00
77147;BME280;66121;52.584;9.694;2024-02-21T00:18:35;101555.25;;;7.73;100.00
77147;BME280;66121;52.584;9.694;2024-02-21T00:21:01;101564.19;;;7.82;100.00
77147;BME280;66121;52.584;9.694;2024-02-21T00:23:27;101555.38;;;7.76;100.00
77147;BME280;66121;52.584;9.694;2024-02-21T00:25:53;101560.41;;;7.74;100.00
77147;BME280;66121;52.584;9.694;2024-02-21T00:28:18;101552.25;;;7.78;100.00
77147;BME280;66121;52.584;9.694;2024-02-21T00:30:44;101549.88;;;7.76;100.00
77147;BME280;66121;52.584;9.694;2024-02-21T00:33:09;101539.78;;;7.80;100.00
77147;BME280;66121;52.584;9.694;2024-02-21T00:35:34;101538.06;;;7.76;100.00
77147;BME280;66121;52.584;9.694;2024-02-21T00:38:00;101536.38;;;7.84;100.00
77147;BME280;66121;52.584;9.694;2024-02-21T00:40:25;101512.44;;;7.72;100.00
77147;BME280;66121;52.584;9.694;2024-02-21T00:42:50;101517.03;;;7.80;100.00
77147;BME280;66121;52.584;9.694;2024-02-21T00:45:16;101506.13;;;7.84;100.00
77147;BME280;66121;52.584;9.694;2024-02-21T00:47:41;101501.31;;;7.80;100.00
77147;BME280;66121;52.584;9.694;2024-02-21T00:50:07;101502.72;;;7.87;100.00
77147;BME280;66121;52.584;9.694;2024-02-21T00:52:33;101495.59;;;7.86;100.00
77147;BME280;66121;52.584;9.694;2024-02-21T00:54:58;101473.19;;;7.71;100.00
77147;BME280;66121;52.584;9.694;2024-02-21T00:57:24;101488.31;;;7.77;100.00
77147;BME280;66121;52.584;9.694;2024-02-21T00:59:49;101490.09;;;7.86;100.00
77147;BME280;66121;52.584;9.694;2024-02-21T01:02:14;101483.03;;;7.85;100.00
77147;BME280;66121;52.584;9.694;2024-02-21T01:04:40;101477.09;;;7.83;100.00
77147;BME280;66121;52.584;9.694;2024-02-21T01:07:05;101473.16;;;7.84;100.00
77147;BME280;66121;52.584;9.694;2024-02-21T01:09:31;101473.63;;;7.86;100.00
77147;BME280;66121;52.584;9.694;2024-02-21T01:11:57;101469.75;;;7.87;100.00
77147;BME280;66121;52.584;9.694;2024-02-21T01:14:23;101469.38;;;7.88;100.00
77147;BME280;66121;52.584;9.694;2024-02-21T01:16:48;101467.56;;;7.92;100.00
77147;BME280;66121;52.584;9.694;2024-02-21T01:19:13;101454.97;;;7.79;100.00
77147;BME280;66121;52.584;9.694;2024-02-21T01:21:39;101446.88;;;7.83;100.00
77147;BME280;66121;52.584;9.694;2024-02-21T01:24:04;101444.13;;;7.83;100.00
77147;BME280;66121;52.584;9.694;2024-02-21T01:26:29;101439.41;;;7.83;100.00
77147;BME280;66121;52.584;9.694;2024-02-21T01:28:55;101453.13;;;7.83;100.00
77147;BME280;66121;52.584;9.694;2024-02-21T01:31:20;101445.81;;;7.87;100.00
77147;BME280;66121;52.584;9.694;2024-02-21T01:33:45;101433.22;;;7.86;100.00
77147;BME280;66121;52.584;9.694;2024-02-21T01:36:11;101429.91;;;7.80;100.00
77147;BME280;66121;52.584;9.694;2024-02-21T01:38:36;101436.88;;;7.90;100.00
77147;BME280;66121;52.584;9.694;2024-02-21T01:41:01;101427.38;;;7.88;100.00
77147;BME280;66121;52.584;9.694;2024-02-21T01:43:27;101419.38;;;7.83;100.00
77147;BME280;66121;52.584;9.694;2024-02-21T01:45:54;101421.19;;;7.91;100.00
77147;BME280;66121;52.584;9.694;2024-02-21T01:48:21;101412.94;;;7.91;100.00
77147;BME280;66121;52.584;9.694;2024-02-21T01:50:48;101407.44;;;7.91;100.00
77147;BME280;66121;52.584;9.694;2024-02-21T01:53:17;101402.31;;;7.89;100.00
77147;BME280;66121;52.584;9.694;2024-02-21T01:55:47;101410.75;;;7.96;100.00
77147;BME280;66121;52.584;9.694;2024-02-21T01:58:16;101394.72;;;7.98;100.00
77147;BME280;66121;52.584;9.694;2024-02-21T02:00:42;101404.66;;;8.03;100.00
77147;BME280;66121;52.584;9.694;2024-02-21T02:03:12;101384.16;;;8.00;100.00
77147;BME280;66121;52.584;9.694;2024-02-21T02:05:48;101376.63;;;7.97;100.00
77147;BME280;66121;52.584;9.694;2024-02-21T02:08:18;101376.97;;;7.96;100.00
77147;BME280;66121;52.584;9.694;2024-02-21T02:10:45;101353.66;;;7.90;100.00
77147;BME280;66121;52.584;9.694;2024-02-21T02:13:11;101355.91;;;8.00;100.00
77147;BME280;66121;52.584;9.694;2024-02-21T02:18:05;101343.09;;;7.92;100.00
77147;BME280;66121;52.584;9.694;2024-02-21T02:20:31;101335.50;;;8.01;100.00
77147;BME280;66121;52.584;9.694;2024-02-21T02:22:58;101324.44;;;7.97;100.00
77147;BME280;66121;52.584;9.694;2024-02-21T02:25:25;101325.56;;;7.96;100.00
77147;BME280;66121;52.584;9.694;2024-02-21T02:27:50;101320.19;;;8.00;100.00
77147;BME280;66121;52.584;9.694;2024-02-21T02:30:16;101298.78;;;7.93;100.00
77147;BME280;66121;52.584;9.694;2024-02-21T02:32:45;101285.50;;;7.95;100.00
77147;BME280;66121;52.584;9.694;2024-02-21T02:35:11;101276.91;;;7.97;100.00
77147;BME280;66121;52.584;9.694;2024-02-21T02:37:36;101271.78;;;8.11;100.00
77147;BME280;66121;52.584;9.694;2024-02-21T02:40:05;101259.53;;;8.08;100.00
77147;BME280;66121;52.584;9.694;2024-02-21T02:42:30;101259.22;;;8.10;100.00
77147;BME280;66121;52.584;9.694;2024-02-21T02:44:56;101237.13;;;8.06;100.00
77147;BME280;66121;52.584;9.694;2024-02-21T02:47:22;101235.19;;;8.07;100.00
77147;BME280;66121;52.584;9.694;2024-02-21T02:49:47;101224.63;;;8.09;100.00
77147;BME280;66121;52.584;9.694;2024-02-21T02:52:16;101203.50;;;8.13;100.00
77147;BME280;66121;52.584;9.694;2024-02-21T02:54:41;101195.19;;;8.09;100.00
77147;BME280;66121;52.584;9.694;2024-02-21T02:57:07;101176.50;;;8.15;100.00
77147;BME280;66121;52.584;9.694;2024-02-21T02:59:32;101174.00;;;8.10;100.00
77147;BME280;66121;52.584;9.694;2024-02-21T03:01:57;101165.56;;;8.03;100.00
77147;BME280;66121;52.584;9.694;2024-02-21T03:04:23;101163.09;;;8.13;100.00
77147;BME280;66121;52.584;9.694;2024-02-21T03:06:48;101154.78;;;8.10;100.00
77147;BME280;66121;52.584;9.694;2024-02-21T03:09:14;101129.56;;;8.08;100.00
77147;BME280;66121;52.584;9.694;2024-02-21T03:11:40;101137.63;;;8.01;100.00
77147;BME280;66121;52.584;9.694;2024-02-21T03:14:08;101130.09;;;7.98;100.00
77147;BME280;66121;52.584;9.694;2024-02-21T03:16:33;101120.88;;;8.06;100.00
77147;BME280;66121;52.584;9.694;2024-02-21T03:18:59;101122.50;;;8.07;100.00
77147;BME280;66121;52.584;9.694;2024-02-21T03:21:24;101127.19;;;8.06;100.00
77147;BME280;66121;52.584;9.694;2024-02-21T03:23:49;101126.81;;;8.08;100.00
77147;BME280;66121;52.584;9.694;2024-02-21T03:26:15;101114.69;;;8.09;100.00
77147;BME280;66121;52.584;9.694;2024-02-21T03:28:42;101093.69;;;8.01;100.00
77147;BME280;66121;52.584;9.694;2024-02-21T03:31:11;101090.22;;;8.04;100.00
77147;BME280;66121;52.584;9.694;2024-02-21T03:33:36;101086.41;;;8.08;100.00
77147;BME280;66121;52.584;9.694;2024-02-21T03:36:01;101089.94;;;8.09;100.00
77147;BME280;66121;52.584;9.694;2024-02-21T03:38:28;101081.81;;;8.12;100.00
77147;BME280;66121;52.584;9.694;2024-02-21T03:40:54;101076.31;;;8.12;100.00
77147;BME280;66121;52.584;9.694;2024-02-21T03:43:19;101088.00;;;8.09;100.00
77147;BME280;66121;52.584;9.694;2024-02-21T03:45:44;101086.84;;;8.10;100.00
77147;BME280;66121;52.584;9.694;2024-02-21T03:48:10;101093.13;;;8.11;100.00
77147;BME280;66121;52.584;9.694;2024-02-21T03:50:35;101091.63;;;8.13;100.00
77147;BME280;66121;52.584;9.694;2024-02-21T03:53:01;101084.63;;;8.00;100.00
77147;BME280;66121;52.584;9.694;2024-02-21T03:55:26;101093.06;;;8.07;100.00
77147;BME280;66121;52.584;9.694;2024-02-21T03:57:51;101115.22;;;8.14;100.00
77147;BME280;66121;52.584;9.694;2024-02-21T04:00:17;101107.31;;;8.13;100.00
77147;BME280;66121;52.584;9.694;2024-02-21T04:02:42;101093.94;;;8.11;100.00
77147;BME280;66121;52.584;9.694;2024-02-21T04:05:08;101098.72;;;8.14;100.00
77147;BME280;66121;52.584;9.694;2024-02-21T04:07:37;101092.69;;;8.09;100.00
77147;BME280;66121;52.584;9.694;2024-02-21T04:10:02;101105.91;;;8.19;100.00
77147;BME280;66121;52.584;9.694;2024-02-21T04:12:28;101088.72;;;8.06;100.00
77147;BME280;66121;52.584;9.694;2024-02-21T04:14:53;101101.81;;;8.13;100.00
77147;BME280;66121;52.584;9.694;2024-02-21T04:17:19;101113.34;;;8.18;100.00
77147;BME280;66121;52.584;9.694;2024-02-21T04:19:44;101075.94;;;7.98;100.00
77147;BME280;66121;52.584;9.694;2024-02-21T04:22:09;101091.56;;;8.10;100.00
77147;BME280;66121;52.584;9.694;2024-02-21T04:24:34;101084.88;;;8.11;100.00
77147;BME280;66121;52.584;9.694;2024-02-21T04:27:00;101079.84;;;8.13;100.00
77147;BME280;66121;52.584;9.694;2024-02-21T04:29:25;101077.59;;;8.18;100.00
77147;BME280;66121;52.584;9.694;2024-02-21T04:31:50;101059.31;;;8.26;100.00
77147;BME280;66121;52.584;9.694;2024-02-21T04:34:16;101053.78;;;8.22;100.00
77147;BME280;66121;52.584;9.694;2024-02-21T04:36:41;101047.91;;;8.24;100.00
77147;BME280;66121;52.584;9.694;2024-02-21T04:39:08;101042.25;;;8.17;100.00
77147;BME280;66121;52.584;9.694;2024-02-21T04:41:34;101052.16;;;8.21;100.00
77147;BME280;66121;52.584;9.694;2024-02-21T04:43:59;101051.44;;;8.24;100.00
77147;BME280;66121;52.584;9.694;2024-02-21T04:46:24;101053.53;;;8.27;100.00
77147;BME280;66121;52.584;9.694;2024-02-21T04:48:50;101053.41;;;8.24;100.00
77147;BME280;66121;52.584;9.694;2024-02-21T04:51:15;101051.34;;;8.21;100.00
77147;BME280;66121;52.584;9.694;2024-02-21T04:53:40;101071.16;;;8.26;100.00
77147;BME280;66121;52.584;9.694;2024-02-21T04:56:06;101061.50;;;8.17;100.00
77147;BME280;66121;52.584;9.694;2024-02-21T04:58:31;101069.31;;;8.15;100.00
77147;BME280;66121;52.584;9.694;2024-02-21T05:00:57;101086.84;;;8.10;100.00
77147;BME280;66121;52.584;9.694;2024-02-21T05:03:23;101089.97;;;7.93;100.00
77147;BME280;66121;52.584;9.694;2024-02-21T05:05:48;101109.44;;;7.88;100.00
77147;BME280;66121;52.584;9.694;2024-02-21T05:08:13;101126.75;;;7.89;100.00
77147;BME280;66121;52.584;9.694;2024-02-21T05:10:39;101139.06;;;7.79;100.00
77147;BME280;66121;52.584;9.694;2024-02-21T05:13:04;101153.59;;;7.79;100.00
77147;BME280;66121;52.584;9.694;2024-02-21T05:15:29;101164.84;;;7.74;100.00
77147;BME280;66121;52.584;9.694;2024-02-21T05:17:55;101169.91;;;7.72;100.00
77147;BME280;66121;52.584;9.694;2024-02-21T05:20:20;101176.16;;;7.73;100.00
77147;BME280;66121;52.584;9.694;2024-02-21T05:22:45;101185.13;;;7.70;100.00
77147;BME280;66121;52.584;9.694;2024-02-21T05:25:11;101192.47;;;7.66;100.00
77147;BME280;66121;52.584;9.694;2024-02-21T05:27:36;101190.31;;;7.59;100.00
77147;BME280;66121;52.584;9.694;2024-02-21T05:30:04;101212.50;;;7.66;100.00
77147;BME280;66121;52.584;9.694;2024-02-21T05:32:31;101205.19;;;7.58;100.00
77147;BME280;66121;52.584;9.694;2024-02-21T05:34:57;101204.06;;;7.59;100.00
77147;BME280;66121;52.584;9.694;2024-02-21T05:37:23;101188.69;;;7.43;100.00
77147;BME280;66121;52.584;9.694;2024-02-21T05:39:48;101206.06;;;7.47;100.00
77147;BME280;66121;52.584;9.694;2024-02-21T05:42:14;101226.28;;;7.54;100.00
77147;BME280;66121;52.584;9.694;2024-02-21T05:44:39;101214.94;;;7.56;100.00
77147;BME280;66121;52.584;9.694;2024-02-21T05:47:04;101220.69;;;7.51;100.00
77147;BME280;66121;52.584;9.694;2024-02-21T05:49:35;101229.03;;;7.54;100.00
77147;BME280;66121;52.584;9.694;2024-02-21T05:52:00;101242.06;;;7.57;100.00
77147;BME280;66121;52.584;9.694;2024-02-21T05:54:25;101239.66;;;7.56;100.00
77147;BME280;66121;52.584;9.694;2024-02-21T05:56:51;101238.66;;;7.48;100.00
77147;BME280;66121;52.584;9.694;2024-02-21T05:59:17;101239.81;;;7.47;100.00
77147;BME280;66121;52.584;9.694;2024-02-21T06:01:42;101255.22;;;7.52;100.00
77147;BME280;66121;52.584;9.694;2024-02-21T06:04:07;101243.59;;;7.43;100.00
77147;BME280;66121;52.584;9.694;2024-02-21T06:06:33;101236.88;;;7.40;100.00
77147;BME280;66121;52.584;9.694;2024-02-21T06:08:59;101257.78;;;7.45;100.00
77147;BME280;66121;52.584;9.694;2024-02-21T06:11:25;101241.78;;;7.35;100.00
77147;BME280;66121;52.584;9.694;2024-02-21T06:13:50;101254.91;;;7.41;100.00
77147;BME280;66121;52.584;9.694;2024-02-21T06:16:15;101252.88;;;7.38;100.00
77147;BME280;66121;52.584;9.694;2024-02-21T06:18:41;101252.09;;;7.38;100.00
77147;BME280;66121;52.584;9.694;2024-02-21T06:21:06;101250.91;;;7.39;100.00
77147;BME280;66121;52.584;9.694;2024-02-21T06:23:32;101262.25;;;7.37;100.00
77147;BME280;66121;52.584;9.694;2024-02-21T06:25:57;101256.22;;;7.32;100.00
77147;BME280;66121;52.584;9.694;2024-02-21T06:28:22;101253.81;;;7.30;100.00
77147;BME280;66121;52.584;9.694;2024-02-21T06:30:48;101268.19;;;7.39;100.00
77147;BME280;66121;52.584;9.694;2024-02-21T06:33:13;101266.94;;;7.37;100.00
77147;BME280;66121;52.584;9.694;2024-02-21T06:35:38;101269.34;;;7.38;100.00
77147;BME280;66121;52.584;9.694;2024-02-21T06:38:06;101272.56;;;7.40;100.00
77147;BME280;66121;52.584;9.694;2024-02-21T06:40:32;101264.19;;;7.37;100.00
77147;BME280;66121;52.584;9.694;2024-02-21T06:43:03;101267.06;;;7.40;100.00
77147;BME280;66121;52.584;9.694;2024-02-21T06:45:28;101266.03;;;7.45;100.00
77147;BME280;66121;52.584;9.694;2024-02-21T06:47:54;101269.91;;;7.44;100.00
77147;BME280;66121;52.584;9.694;2024-02-21T06:50:19;101255.28;;;7.40;100.00
77147;BME280;66121;52.584;9.694;2024-02-21T06:52:44;101256.38;;;7.51;100.00
77147;BME280;66121;52.584;9.694;2024-02-21T06:55:10;101263.72;;;7.47;100.00
77147;BME280;66121;52.584;9.694;2024-02-21T06:57:35;101261.09;;;7.50;100.00
77147;BME280;66121;52.584;9.694;2024-02-21T07:00:00;101260.97;;;7.47;100.00
77147;BME280;66121;52.584;9.694;2024-02-21T07:02:26;101248.88;;;7.36;100.00
77147;BME280;66121;52.584;9.694;2024-02-21T07:04:51;101262.47;;;7.44;100.00
77147;BME280;66121;52.584;9.694;2024-02-21T07:07:16;101272.84;;;7.51;100.00
77147;BME280;66121;52.584;9.694;2024-02-21T07:09:42;101272.84;;;7.51;100.00
77147;BME280;66121;52.584;9.694;2024-02-21T07:12:07;101272.34;;;7.61;100.00
77147;BME280;66121;52.584;9.694;2024-02-21T07:14:33;101270.22;;;7.54;100.00
77147;BME280;66121;52.584;9.694;2024-02-21T07:16:58;101274.66;;;7.59;100.00
77147;BME280;66121;52.584;9.694;2024-02-21T07:19:23;101274.06;;;7.65;100.00
77147;BME280;66121;52.584;9.694;2024-02-21T07:21:49;101234.31;;;7.47;100.00
77147;BME280;66121;52.584;9.694;2024-02-21T07:24:14;101262.28;;;7.65;100.00
77147;BME280;66121;52.584;9.694;2024-02-21T07:26:43;101250.38;;;7.61;100.00
77147;BME280;66121;52.584;9.694;2024-02-21T07:29:09;101265.47;;;7.67;100.00
77147;BME280;66121;52.584;9.694;2024-02-21T07:31:44;101269.38;;;7.66;100.00
77147;BME280;66121;52.584;9.694;2024-02-21T07:34:09;101260.31;;;7.65;100.00
77147;BME280;66121;52.584;9.694;2024-02-21T07:36:35;101250.06;;;7.62;100.00
77147;BME280;66121;52.584;9.694;2024-02-21T07:39:02;101263.19;;;7.69;100.00
77147;BME280;66121;52.584;9.694;2024-02-21T07:41:28;101246.94;;;7.64;100.00
77147;BME280;66121;52.584;9.694;2024-02-21T07:43:55;101263.97;;;7.69;100.00
77147;BME280;66121;52.584;9.694;2024-02-21T07:46:21;101256.06;;;7.68;100.00
77147;BME280;66121;52.584;9.694;2024-02-21T07:48:46;101265.56;;;7.70;100.00
77147;BME280;66121;52.584;9.694;2024-02-21T07:51:12;101267.19;;;7.71;100.00
77147;BME280;66121;52.584;9.694;2024-02-21T07:53:38;101260.19;;;7.74;100.00
77147;BME280;66121;52.584;9.694;2024-02-21T07:56:04;101265.44;;;7.79;100.00
77147;BME280;66121;52.584;9.694;2024-02-21T07:58:29;101259.25;;;7.82;100.00
77147;BME280;66121;52.584;9.694;2024-02-21T08:00:55;101255.78;;;7.85;100.00
77147;BME280;66121;52.584;9.694;2024-02-21T08:03:20;101254.81;;;7.93;100.00
77147;BME280;66121;52.584;9.694;2024-02-21T08:05:46;101240.38;;;7.96;100.00
77147;BME280;66121;52.584;9.694;2024-02-21T08:08:12;101236.31;;;7.90;100.00
77147;BME280;66121;52.584;9.694;2024-02-21T08:10:43;101227.97;;;7.87;100.00
77147;BME280;66121;52.584;9.694;2024-02-21T08:13:08;101219.81;;;7.90;100.00
77147;BME280;66121;52.584;9.694;2024-02-21T08:15:34;101210.84;;;7.93;100.00
77147;BME280;66121;52.584;9.694;2024-02-21T08:17:59;101225.25;;;8.02;100.00
77147;BME280;66121;52.584;9.694;2024-02-21T08:20:26;101210.25;;;8.00;100.00
77147;BME280;66121;52.584;9.694;2024-02-21T08:22:52;101212.38;;;8.06;100.00
77147;BME280;66121;52.584;9.694;2024-02-21T08:25:17;101190.75;;;8.05;100.00
77147;BME280;66121;52.584;9.694;2024-02-21T08:27:43;101187.75;;;8.10;100.00
77147;BME280;66121;52.584;9.694;2024-02-21T08:30:10;101157.94;;;7.96;100.00
77147;BME280;66121;52.584;9.694;2024-02-21T08:32:35;101180.00;;;8.15;100.00
77147;BME280;66121;52.584;9.694;2024-02-21T08:35:01;101174.63;;;8.19;100.00
77147;BME280;66121;52.584;9.694;2024-02-21T08:37:27;101159.00;;;8.23;100.00
77147;BME280;66121;52.584;9.694;2024-02-21T08:39:52;101159.00;;;8.23;100.00
77147;BME280;66121;52.584;9.694;2024-02-21T08:42:18;101122.28;;;8.15;100.00
77147;BME280;66121;52.584;9.694;2024-02-21T08:44:44;101127.91;;;8.34;100.00
77147;BME280;66121;52.584;9.694;2024-02-21T08:47:09;101124.94;;;8.43;100.00
77147;BME280;66121;52.584;9.694;2024-02-21T08:49:35;101107.03;;;8.49;100.00
77147;BME280;66121;52.584;9.694;2024-02-21T08:52:01;101084.31;;;8.52;100.00
77147;BME280;66121;52.584;9.694;2024-02-21T08:54:27;101073.91;;;8.61;100.00
77147;BME280;66121;52.584;9.694;2024-02-21T08:56:54;101071.72;;;8.70;100.00
77147;BME280;66121;52.584;9.694;2024-02-21T08:59:19;101067.97;;;8.78;100.00
77147;BME280;66121;52.584;9.694;2024-02-21T09:01:46;101058.72;;;8.67;100.00
77147;BME280;66121;52.584;9.694;2024-02-21T09:04:11;101050.75;;;8.62;100.00
77147;BME280;66121;52.584;9.694;2024-02-21T09:06:36;101010.41;;;8.51;100.00
77147;BME280;66121;52.584;9.694;2024-02-21T09:09:04;101024.19;;;8.70;100.00
77147;BME280;66121;52.584;9.694;2024-02-21T09:11:30;101000.16;;;8.67;100.00
77147;BME280;66121;52.584;9.694;2024-02-21T09:13:55;100993.34;;;8.80;100.00
77147;BME280;66121;52.584;9.694;2024-02-21T09:16:20;101003.16;;;8.81;100.00
77147;BME280;66121;52.584;9.694;2024-02-21T09:18:46;100982.88;;;8.89;100.00
77147;BME280;66121;52.584;9.694;2024-02-21T09:21:11;100966.00;;;8.90;100.00
77147;BME280;66121;52.584;9.694;2024-02-21T09:23:37;100958.38;;;9.03;100.00
77147;BME280;66121;52.584;9.694;2024-02-21T09:26:02;100960.78;;;9.27;100.00
77147;BME280;66121;52.584;9.694;2024-02-21T09:28:29;100934.81;;;9.28;100.00
77147;BME280;66121;52.584;9.694;2024-02-21T09:30:55;100918.38;;;9.32;100.00
77147;BME280;66121;52.584;9.694;2024-02-21T09:33:20;100890.84;;;9.32;100.00
77147;BME280;66121;52.584;9.694;2024-02-21T09:35:45;100877.66;;;9.44;100.00
77147;BME280;66121;52.584;9.694;2024-02-21T09:38:12;100869.44;;;9.48;100.00
77147;BME280;66121;52.584;9.694;2024-02-21T09:40:38;100841.31;;;9.35;100.00
77147;BME280;66121;52.584;9.694;2024-02-21T09:43:04;100830.75;;;9.37;100.00
77147;BME280;66121;52.584;9.694;2024-02-21T09:45:32;100810.28;;;9.38;100.00
77147;BME280;66121;52.584;9.694;2024-02-21T09:51:02;100786.53;;;9.27;100.00
77147;BME280;66121;52.584;9.694;2024-02-21T09:53:28;100793.28;;;9.33;100.00
77147;BME280;66121;52.584;9.694;2024-02-21T09:55:54;100774.31;;;9.28;100.00
77147;BME280;66121;52.584;9.694;2024-02-21T09:58:20;100789.44;;;9.37;100.00
77147;BME280;66121;52.584;9.694;2024-02-21T10:00:46;100772.44;;;9.32;100.00
77147;BME280;66121;52.584;9.694;2024-02-21T10:03:12;100774.44;;;9.35;100.00
77147;BME280;66121;52.584;9.694;2024-02-21T10:05:38;100741.34;;;9.31;99.65
77147;BME280;66121;52.584;9.694;2024-02-21T10:08:04;100731.47;;;9.27;99.92
77147;BME280;66121;52.584;9.694;2024-02-21T10:10:40;100726.38;;;9.29;99.47
77147;BME280;66121;52.584;9.694;2024-02-21T10:13:05;100696.81;;;9.26;98.15
77147;BME280;66121;52.584;9.694;2024-02-21T10:15:31;100685.13;;;9.32;98.18
77147;BME280;66121;52.584;9.694;2024-02-21T10:18:01;100642.97;;;9.28;96.88
77147;BME280;66121;52.584;9.694;2024-02-21T10:20:28;100619.03;;;9.32;96.40
77147;BME280;66121;52.584;9.694;2024-02-21T10:23:04;100604.22;;;9.47;95.31
77147;BME280;66121;52.584;9.694;2024-02-21T10:25:36;100563.72;;;9.48;94.26
77147;BME280;66121;52.584;9.694;2024-02-21T10:28:12;100554.63;;;9.84;94.28
77147;BME280;66121;52.584;9.694;2024-02-21T10:30:37;100556.44;;;10.13;92.98
77147;BME280;66121;52.584;9.694;2024-02-21T10:33:05;100485.03;;;9.98;90.60
77147;BME280;66121;52.584;9.694;2024-02-21T10:35:32;100447.66;;;10.04;89.47
77147;BME280;66121;52.584;9.694;2024-02-21T10:37:59;100449.66;;;10.10;89.19
77147;BME280;66121;52.584;9.694;2024-02-21T10:40:26;100482.47;;;10.26;89.70
77147;BME280;66121;52.584;9.694;2024-02-21T10:43:12;100428.50;;;10.21;89.17
77147;BME280;66121;52.584;9.694;2024-02-21T10:45:39;100393.00;;;10.20;87.34
77147;BME280;66121;52.584;9.694;2024-02-21T10:48:14;100419.06;;;10.26;87.78
77147;BME280;66121;52.584;9.694;2024-02-21T10:51:03;100417.13;;;10.33;87.86
77147;BME280;66121;52.584;9.694;2024-02-21T10:56:28;100405.31;;;10.37;87.69
77147;BME280;66121;52.584;9.694;2024-02-21T10:58:53;100382.00;;;10.16;86.47
77147;BME280;66121;52.584;9.694;2024-02-21T11:01:21;100465.84;;;10.12;86.19
77147;BME280;66121;52.584;9.694;2024-02-21T11:03:49;100468.16;;;10.06;86.17
77147;BME280;66121;52.584;9.694;2024-02-21T11:06:16;100482.72;;;10.07;85.88
77147;BME280;66121;52.584;9.694;2024-02-21T11:08:42;100489.44;;;10.09;86.31
77147;BME280;66121;52.584;9.694;2024-02-21T11:11:12;100483.94;;;10.09;86.14
77147;BME280;66121;52.584;9.694;2024-02-21T11:13:42;100489.00;;;10.04;86.01
77147;BME280;66121;52.584;9.694;2024-02-21T11:16:20;100491.38;;;10.02;86.35
77147;BME280;66121;52.584;9.694;2024-02-21T11:18:46;100487.44;;;10.10;85.98
77147;BME280;66121;52.584;9.694;2024-02-21T11:21:11;100485.50;;;10.10;85.74
77147;BME280;66121;52.584;9.694;2024-02-21T11:23:37;100463.00;;;10.01;85.44
77147;BME280;66121;52.584;9.694;2024-02-21T11:28:31;100451.13;;;9.94;84.95
77147;BME280;66121;52.584;9.694;2024-02-21T11:31:11;100453.09;;;9.93;84.90
77147;BME280;66121;52.584;9.694;2024-02-21T11:33:39;100465.38;;;10.03;85.17
77147;BME280;66121;52.584;9.694;2024-02-21T11:36:06;100473.66;;;10.10;85.38
77147;BME280;66121;52.584;9.694;2024-02-21T11:38:31;100462.25;;;10.04;85.02
77147;BME280;66121;52.584;9.694;2024-02-21T11:40:56;100419.66;;;9.98;83.63
77147;BME280;66121;52.584;9.694;2024-02-21T11:43:23;100431.91;;;10.08;83.91
77147;BME280;66121;52.584;9.694;2024-02-21T11:45:49;100441.09;;;10.19;84.11
77147;BME280;66121;52.584;9.694;2024-02-21T11:48:14;100398.47;;;10.09;82.73
77147;BME280;66121;52.584;9.694;2024-02-21T11:50:39;100489.50;;;10.16;82.62
77147;BME280;66121;52.584;9.694;2024-02-21T11:53:05;100510.00;;;10.22;83.07
77147;BME280;66121;52.584;9.694;2024-02-21T11:55:31;100499.03;;;10.26;82.15
77147;BME280;66121;52.584;9.694;2024-02-21T11:57:56;100489.97;;;10.29;81.65
77147;BME280;66121;52.584;9.694;2024-02-21T12:00:22;100489.97;;;10.29;81.37
77147;BME280;66121;52.584;9.694;2024-02-21T12:02:50;100464.22;;;10.11;80.25
77147;BME280;66121;52.584;9.694;2024-02-21T12:05:16;100474.13;;;10.15;80.00
77147;BME280;66121;52.584;9.694;2024-02-21T12:07:41;100492.28;;;10.16;80.50
77147;BME280;66121;52.584;9.694;2024-02-21T12:10:10;100517.09;;;10.20;81.18
77147;BME280;66121;52.584;9.694;2024-02-21T12:12:39;100499.41;;;10.24;79.80
77147;BME280;66121;52.584;9.694;2024-02-21T12:15:05;100470.28;;;10.27;78.99
77147;BME280;66121;52.584;9.694;2024-02-21T12:17:35;100500.31;;;10.46;79.86
77147;BME280;66121;52.584;9.694;2024-02-21T12:20:01;100482.59;;;10.51;79.11
77147;BME280;66121;52.584;9.694;2024-02-21T12:22:29;100450.69;;;10.53;78.03
77147;BME280;66121;52.584;9.694;2024-02-21T12:24:57;100480.31;;;10.74;78.67
77147;BME280;66121;52.584;9.694;2024-02-21T12:27:23;100454.66;;;10.70;78.41
77147;BME280;66121;52.584;9.694;2024-02-21T12:29:49;100472.44;;;10.79;77.90
77147;BME280;66121;52.584;9.694;2024-02-21T12:32:14;100417.59;;;10.67;75.87
77147;BME280;66121;52.584;9.694;2024-02-21T12:34:40;100390.03;;;10.67;75.04
77147;BME280;66121;52.584;9.694;2024-02-21T12:37:05;100378.56;;;10.55;74.74
77147;BME280;66121;52.584;9.694;2024-02-21T12:39:30;100420.44;;;10.92;75.68
77147;BME280;66121;52.584;9.694;2024-02-21T12:41:57;100444.91;;;11.08;76.25
77147;BME280;66121;52.584;9.694;2024-02-21T12:44:22;100414.94;;;10.99;75.28
77147;BME280;66121;52.584;9.694;2024-02-21T12:46:49;100398.34;;;10.95;74.19
77147;BME280;66121;52.584;9.694;2024-02-21T12:49:17;100384.94;;;10.76;73.92
77147;BME280;66121;52.584;9.694;2024-02-21T12:51:43;100371.50;;;10.75;73.58
77147;BME280;66121;52.584;9.694;2024-02-21T12:54:09;100384.09;;;10.65;73.72
77147;BME280;66121;52.584;9.694;2024-02-21T12:56:36;100415.28;;;10.80;74.09